sensor_id;sensor_type;location;lat;lon;timestamp;pressure;altitude;pressure_sealevel;temperature;humidity
5380;BME280;2713;42.680;23.310;2022-09-14T00:01:06;95004.47;;;17.45;59.82
5380;BME280;2713;42.680;23.310;2022-09-14T00:03:33;95013.28;;;17.51;59.35
5380;BME280;2713;42.680;23.310;2022-09-14T00:06:04;95008.19;;;17.56;59.40
5380;BME280;2713;42.680;23.310;2022-09-14T00:08:31;95006.84;;;17.47;59.51
5380;BME280;2713;42.680;23.310;2022-09-14T00:11:03;95018.31;;;17.52;59.16
5380;BME280;2713;42.680;23.310;2022-09-14T00:13:30;95015.50;;;17.36;60.08
5380;BME280;2713;42.680;23.310;2022-09-14T00:16:02;95014.09;;;17.33;60.03
5380;BME280;2713;42.680;23.310;2022-09-14T00:18:29;95014.97;;;17.45;59.76
5380;BME280;2713;42.680;23.310;2022-09-14T00:20:58;95014.06;;;17.51;59.62
5380;BME280;2713;42.680;23.310;2022-09-14T00:23:27;95013.91;;;17.35;60.08
5380;BME280;2713;42.680;23.310;2022-09-14T00:25:54;95015.69;;;17.52;59.52
5380;BME280;2713;42.680;23.310;2022-09-14T00:28:22;95012.25;;;17.52;59.56
5380;BME280;2713;42.680;23.310;2022-09-14T00:30:48;95008.00;;;17.51;59.22
5380;BME280;2713;42.680;23.310;2022-09-14T00:33:15;95010.94;;;17.61;58.61
5380;BME280;2713;42.680;23.310;2022-09-14T00:35:42;95012.03;;;17.53;58.45
5380;BME280;2713;42.680;23.310;2022-09-14T00:38:09;95006.78;;;17.53;58.30
5380;BME280;2713;42.680;23.310;2022-09-14T00:40:37;95010.88;;;17.49;58.69
5380;BME280;2713;42.680;23.310;2022-09-14T00:43:11;95017.34;;;17.35;59.76
5380;BME280;2713;42.680;23.310;2022-09-14T00:45:40;95018.06;;;17.54;58.92
5380;BME280;2713;42.680;23.310;2022-09-14T00:48:07;95017.31;;;17.53;58.93
5380;BME280;2713;42.680;23.310;2022-09-14T00:50:34;95017.16;;;17.48;59.14
5380;BME280;2713;42.680;23.310;2022-09-14T00:53:01;95026.94;;;17.41;59.63
5380;BME280;2713;42.680;23.310;2022-09-14T00:55:29;95018.16;;;17.47;59.55
5380;BME280;2713;42.680;23.310;2022-09-14T00:57:58;95030.03;;;17.38;60.25
5380;BME280;2713;42.680;23.310;2022-09-14T01:00:27;95026.03;;;17.36;60.25
5380;BME280;2713;42.680;23.310;2022-09-14T01:02:54;95024.38;;;17.05;61.09
5380;BME280;2713;42.680;23.310;2022-09-14T01:05:28;95033.72;;;17.19;60.48
5380;BME280;2713;42.680;23.310;2022-09-14T01:08:08;95035.38;;;17.13;60.12
5380;BME280;2713;42.680;23.310;2022-09-14T01:10:49;95022.84;;;16.97;60.80
5380;BME280;2713;42.680;23.310;2022-09-14T01:13:27;95027.56;;;16.89;60.56
5380;BME280;2713;42.680;23.310;2022-09-14T01:16:02;95037.59;;;16.98;60.36
5380;BME280;2713;42.680;23.310;2022-09-14T01:18:36;95030.72;;;17.15;60.15
5380;BME280;2713;42.680;23.310;2022-09-14T01:21:08;95027.06;;;17.16;60.19
5380;BME280;2713;42.680;23.310;2022-09-14T01:23:40;95032.81;;;17.25;60.34
5380;BME280;2713;42.680;23.310;2022-09-14T01:29:11;95017.19;;;17.30;60.03
5380;BME280;2713;42.680;23.310;2022-09-14T01:34:26;95016.25;;;17.06;60.14
5380;BME280;2713;42.680;23.310;2022-09-14T01:36:56;95013.88;;;16.87;60.42
5380;BME280;2713;42.680;23.310;2022-09-14T01:39:26;95021.09;;;16.91;60.60
5380;BME280;2713;42.680;23.310;2022-09-14T01:41:56;95021.91;;;16.92;60.14
5380;BME280;2713;42.680;23.310;2022-09-14T01:44:30;95026.44;;;16.85;60.29
5380;BME280;2713;42.680;23.310;2022-09-14T01:47:02;95017.06;;;16.89;60.39
5380;BME280;2713;42.680;23.310;2022-09-14T01:49:34;95030.78;;;16.91;59.74
5380;BME280;2713;42.680;23.310;2022-09-14T01:52:06;95042.47;;;16.95;59.95
5380;BME280;2713;42.680;23.310;2022-09-14T01:54:37;95034.28;;;17.03;60.36
5380;BME280;2713;42.680;23.310;2022-09-14T01:57:08;95032.91;;;17.00;60.15
5380;BME280;2713;42.680;23.310;2022-09-14T01:59:43;95025.53;;;16.91;60.13
5380;BME280;2713;42.680;23.310;2022-09-14T02:02:12;95000.97;;;16.67;59.67
5380;BME280;2713;42.680;23.310;2022-09-14T02:04:46;95011.69;;;16.84;59.82
5380;BME280;2713;42.680;23.310;2022-09-14T02:07:15;95017.31;;;16.87;59.88
5380;BME280;2713;42.680;23.310;2022-09-14T02:09:45;95001.91;;;16.72;59.74
5380;BME280;2713;42.680;23.310;2022-09-14T02:12:13;95031.94;;;16.77;59.82
5380;BME280;2713;42.680;23.310;2022-09-14T02:14:44;95027.22;;;16.67;60.27
5380;BME280;2713;42.680;23.310;2022-09-14T02:17:12;95029.03;;;16.66;60.64
5380;BME280;2713;42.680;23.310;2022-09-14T02:19:43;95025.53;;;16.72;60.43
5380;BME280;2713;42.680;23.310;2022-09-14T02:22:10;95029.97;;;16.72;60.89
5380;BME280;2713;42.680;23.310;2022-09-14T02:24:37;95020.50;;;16.71;61.06
5380;BME280;2713;42.680;23.310;2022-09-14T02:27:06;95014.16;;;16.79;61.05
5380;BME280;2713;42.680;23.310;2022-09-14T02:29:33;95011.16;;;16.75;60.80
5380;BME280;2713;42.680;23.310;2022-09-14T02:32:11;95023.34;;;16.88;60.25
5380;BME280;2713;42.680;23.310;2022-09-14T02:34:49;95028.16;;;16.72;61.10
5380;BME280;2713;42.680;23.310;2022-09-14T02:37:21;95026.69;;;16.77;61.12
5380;BME280;2713;42.680;23.310;2022-09-14T02:39:56;95017.81;;;16.53;61.58
5380;BME280;2713;42.680;23.310;2022-09-14T02:42:28;95022.59;;;16.62;61.71
5380;BME280;2713;42.680;23.310;2022-09-14T02:45:08;95030.47;;;16.62;61.93
5380;BME280;2713;42.680;23.310;2022-09-14T02:47:47;95035.59;;;16.51;62.33
5380;BME280;2713;42.680;23.310;2022-09-14T02:50:23;95037.97;;;16.34;62.56
5380;BME280;2713;42.680;23.310;2022-09-14T02:52:58;95028.75;;;16.50;62.47
5380;BME280;2713;42.680;23.310;2022-09-14T02:55:31;95028.19;;;16.23;62.80
5380;BME280;2713;42.680;23.310;2022-09-14T02:58:02;95027.91;;;16.31;62.90
5380;BME280;2713;42.680;23.310;2022-09-14T03:00:31;95031.00;;;16.46;62.60
5380;BME280;2713;42.680;23.310;2022-09-14T03:03:00;95026.47;;;16.60;62.31
5380;BME280;2713;42.680;23.310;2022-09-14T03:05:26;95036.41;;;16.51;62.52
5380;BME280;2713;42.680;23.310;2022-09-14T03:07:53;95041.06;;;16.49;62.01
5380;BME280;2713;42.680;23.310;2022-09-14T03:10:20;95038.13;;;16.39;62.63
5380;BME280;2713;42.680;23.310;2022-09-14T03:12:47;95034.38;;;16.53;62.56
5380;BME280;2713;42.680;23.310;2022-09-14T03:15:14;95030.03;;;16.65;62.28
5380;BME280;2713;42.680;23.310;2022-09-14T03:17:44;95036.19;;;16.53;62.19
5380;BME280;2713;42.680;23.310;2022-09-14T03:20:13;95031.97;;;16.52;61.95
5380;BME280;2713;42.680;23.310;2022-09-14T03:22:40;95033.78;;;16.51;61.76
5380;BME280;2713;42.680;23.310;2022-09-14T03:25:07;95030.38;;;16.26;61.92
5380;BME280;2713;42.680;23.310;2022-09-14T03:27:34;95040.56;;;16.16;62.05
5380;BME280;2713;42.680;23.310;2022-09-14T03:30:01;95037.66;;;16.24;62.12
5380;BME280;2713;42.680;23.310;2022-09-14T03:32:28;95028.56;;;16.02;62.56
5380;BME280;2713;42.680;23.310;2022-09-14T03:34:54;95036.56;;;16.07;63.29
5380;BME280;2713;42.680;23.310;2022-09-14T03:37:23;95035.63;;;16.26;62.67
5380;BME280;2713;42.680;23.310;2022-09-14T03:39:50;95040.13;;;16.44;62.52
5380;BME280;2713;42.680;23.310;2022-09-14T03:42:17;95035.06;;;16.42;62.61
5380;BME280;2713;42.680;23.310;2022-09-14T03:44:44;95024.59;;;16.42;62.89
5380;BME280;2713;42.680;23.310;2022-09-14T03:47:11;95031.97;;;16.52;62.55
5380;BME280;2713;42.680;23.310;2022-09-14T03:49:38;95029.41;;;16.45;62.67
5380;BME280;2713;42.680;23.310;2022-09-14T03:52:04;95030.38;;;16.26;63.04
5380;BME280;2713;42.680;23.310;2022-09-14T03:54:33;95036.78;;;16.30;63.36
5380;BME280;2713;42.680;23.310;2022-09-14T03:56:59;95040.13;;;16.44;62.76
5380;BME280;2713;42.680;23.310;2022-09-14T03:59:26;95040.91;;;16.44;62.84
5380;BME280;2713;42.680;23.310;2022-09-14T04:01:53;95045.13;;;16.45;62.90
5380;BME280;2713;42.680;23.310;2022-09-14T04:04:20;95037.28;;;16.45;62.72
5380;BME280;2713;42.680;23.310;2022-09-14T04:06:47;95037.44;;;16.50;62.97
5380;BME280;2713;42.680;23.310;2022-09-14T04:09:14;95046.50;;;16.30;63.36
5380;BME280;2713;42.680;23.310;2022-09-14T04:11:43;95034.97;;;16.31;63.45
5380;BME280;2713;42.680;23.310;2022-09-14T04:14:10;95044.94;;;16.22;63.61
5380;BME280;2713;42.680;23.310;2022-09-14T04:16:37;95046.63;;;16.10;64.31
5380;BME280;2713;42.680;23.310;2022-09-14T04:19:04;95044.63;;;16.12;64.00
5380;BME280;2713;42.680;23.310;2022-09-14T04:21:32;95041.34;;;16.16;63.80
5380;BME280;2713;42.680;23.310;2022-09-14T04:23:59;95033.44;;;16.23;63.78
5380;BME280;2713;42.680;23.310;2022-09-14T04:26:27;95038.50;;;16.18;63.86
5380;BME280;2713;42.680;23.310;2022-09-14T04:28:56;95039.84;;;16.02;64.88
5380;BME280;2713;42.680;23.310;2022-09-14T04:31:24;95041.56;;;16.15;64.74
5380;BME280;2713;42.680;23.310;2022-09-14T04:33:52;95034.16;;;16.30;64.12
5380;BME280;2713;42.680;23.310;2022-09-14T04:36:21;95034.91;;;16.37;64.05
5380;BME280;2713;42.680;23.310;2022-09-14T04:38:52;95039.88;;;16.45;63.15
5380;BME280;2713;42.680;23.310;2022-09-14T04:41:20;95044.13;;;16.46;62.95
5380;BME280;2713;42.680;23.310;2022-09-14T04:43:49;95051.69;;;16.36;63.35
5380;BME280;2713;42.680;23.310;2022-09-14T04:46:19;95046.94;;;16.27;63.88
5380;BME280;2713;42.680;23.310;2022-09-14T04:48:47;95056.88;;;16.43;63.74
5380;BME280;2713;42.680;23.310;2022-09-14T04:51:15;95050.25;;;16.40;63.45
5380;BME280;2713;42.680;23.310;2022-09-14T04:53:44;95049.50;;;16.33;63.78
5380;BME280;2713;42.680;23.310;2022-09-14T04:56:12;95056.94;;;16.36;63.58
5380;BME280;2713;42.680;23.310;2022-09-14T04:58:42;95064.69;;;16.49;63.51
5380;BME280;2713;42.680;23.310;2022-09-14T05:01:11;95060.78;;;16.58;63.34
5380;BME280;2713;42.680;23.310;2022-09-14T05:03:40;95065.06;;;16.53;63.59
5380;BME280;2713;42.680;23.310;2022-09-14T05:06:08;95064.03;;;16.60;63.51
5380;BME280;2713;42.680;23.310;2022-09-14T05:08:35;95065.78;;;16.66;63.20
5380;BME280;2713;42.680;23.310;2022-09-14T05:11:04;95067.44;;;16.61;63.19
5380;BME280;2713;42.680;23.310;2022-09-14T05:13:31;95072.47;;;16.62;63.20
5380;BME280;2713;42.680;23.310;2022-09-14T05:16:04;95076.97;;;16.55;63.24
5380;BME280;2713;42.680;23.310;2022-09-14T05:18:31;95077.63;;;16.44;63.59
5380;BME280;2713;42.680;23.310;2022-09-14T05:21:02;95077.16;;;16.54;63.24
5380;BME280;2713;42.680;23.310;2022-09-14T05:23:29;95078.97;;;16.60;63.04
5380;BME280;2713;42.680;23.310;2022-09-14T05:25:56;95071.91;;;16.60;62.80
5380;BME280;2713;42.680;23.310;2022-09-14T05:28:23;95080.91;;;16.64;63.06
5380;BME280;2713;42.680;23.310;2022-09-14T05:30:50;95079.69;;;16.42;63.32
5380;BME280;2713;42.680;23.310;2022-09-14T05:33:17;95080.38;;;16.31;64.16
5380;BME280;2713;42.680;23.310;2022-09-14T05:35:44;95083.31;;;16.41;63.82
5380;BME280;2713;42.680;23.310;2022-09-14T05:38:12;95089.44;;;16.35;64.12
5380;BME280;2713;42.680;23.310;2022-09-14T05:40:39;95091.19;;;16.41;63.85
5380;BME280;2713;42.680;23.310;2022-09-14T05:43:07;95085.69;;;16.49;63.52
5380;BME280;2713;42.680;23.310;2022-09-14T05:45:34;95094.19;;;16.45;63.21
5380;BME280;2713;42.680;23.310;2022-09-14T05:48:02;95091.78;;;16.43;63.44
5380;BME280;2713;42.680;23.310;2022-09-14T05:50:29;95092.53;;;16.75;62.39
5380;BME280;2713;42.680;23.310;2022-09-14T05:52:56;95101.41;;;17.17;61.08
5380;BME280;2713;42.680;23.310;2022-09-14T05:55:24;95090.66;;;17.55;59.75
5380;BME280;2713;42.680;23.310;2022-09-14T05:57:51;95109.47;;;17.88;58.83
5380;BME280;2713;42.680;23.310;2022-09-14T06:00:18;95109.94;;;18.15;57.63
5380;BME280;2713;42.680;23.310;2022-09-14T06:02:46;95109.22;;;18.61;56.40
5380;BME280;2713;42.680;23.310;2022-09-14T06:05:13;95111.84;;;19.19;54.35
5380;BME280;2713;42.680;23.310;2022-09-14T06:07:39;95104.81;;;19.59;53.02
5380;BME280;2713;42.680;23.310;2022-09-14T06:10:07;95098.75;;;19.87;51.55
5380;BME280;2713;42.680;23.310;2022-09-14T06:12:35;95100.44;;;20.21;51.07
5380;BME280;2713;42.680;23.310;2022-09-14T06:15:02;95102.25;;;20.66;49.84
5380;BME280;2713;42.680;23.310;2022-09-14T06:17:29;95102.91;;;20.73;49.01
5380;BME280;2713;42.680;23.310;2022-09-14T06:19:56;95099.06;;;20.64;49.59
5380;BME280;2713;42.680;23.310;2022-09-14T06:22:23;95091.50;;;20.89;49.40
5380;BME280;2713;42.680;23.310;2022-09-14T06:24:50;95096.72;;;21.17;48.26
5380;BME280;2713;42.680;23.310;2022-09-14T06:27:18;95089.53;;;21.35;47.94
5380;BME280;2713;42.680;23.310;2022-09-14T06:29:46;95088.41;;;20.92;47.95
5380;BME280;2713;42.680;23.310;2022-09-14T06:32:16;95088.25;;;20.82;48.43
5380;BME280;2713;42.680;23.310;2022-09-14T06:34:43;95088.78;;;21.01;48.26
5380;BME280;2713;42.680;23.310;2022-09-14T06:37:10;95088.72;;;21.34;47.11
5380;BME280;2713;42.680;23.310;2022-09-14T06:39:38;95085.38;;;21.60;46.64
5380;BME280;2713;42.680;23.310;2022-09-14T06:42:05;95080.19;;;21.70;46.30
5380;BME280;2713;42.680;23.310;2022-09-14T06:44:32;95089.63;;;22.10;45.47
5380;BME280;2713;42.680;23.310;2022-09-14T06:47:00;95086.25;;;22.14;45.43
5380;BME280;2713;42.680;23.310;2022-09-14T06:49:27;95092.66;;;22.18;45.09
5380;BME280;2713;42.680;23.310;2022-09-14T06:51:54;95088.19;;;22.24;45.17
5380;BME280;2713;42.680;23.310;2022-09-14T06:54:22;95096.00;;;22.36;45.23
5380;BME280;2713;42.680;23.310;2022-09-14T06:56:50;95094.38;;;22.08;45.08
5380;BME280;2713;42.680;23.310;2022-09-14T06:59:17;95100.66;;;22.55;44.23
5380;BME280;2713;42.680;23.310;2022-09-14T07:01:44;95090.31;;;22.86;43.98
5380;BME280;2713;42.680;23.310;2022-09-14T07:04:12;95100.00;;;23.07;43.58
5380;BME280;2713;42.680;23.310;2022-09-14T07:06:41;95102.00;;;23.32;43.24
5380;BME280;2713;42.680;23.310;2022-09-14T07:09:08;95103.06;;;23.31;42.64
5380;BME280;2713;42.680;23.310;2022-09-14T07:11:36;95084.63;;;23.09;43.30
5380;BME280;2713;42.680;23.310;2022-09-14T07:14:03;95080.41;;;23.13;43.36
5380;BME280;2713;42.680;23.310;2022-09-14T07:16:31;95075.44;;;23.27;43.18
5380;BME280;2713;42.680;23.310;2022-09-14T07:19:01;95083.28;;;23.48;42.83
5380;BME280;2713;42.680;23.310;2022-09-14T07:21:31;95078.28;;;23.57;41.95
5380;BME280;2713;42.680;23.310;2022-09-14T07:23:58;95078.59;;;23.70;42.33
5380;BME280;2713;42.680;23.310;2022-09-14T07:26:27;95078.59;;;23.70;42.35
5380;BME280;2713;42.680;23.310;2022-09-14T07:28:55;95079.75;;;24.05;41.82
5380;BME280;2713;42.680;23.310;2022-09-14T07:31:24;95067.06;;;24.42;41.17
5380;BME280;2713;42.680;23.310;2022-09-14T07:33:52;95066.53;;;24.35;40.74
5380;BME280;2713;42.680;23.310;2022-09-14T07:36:20;95057.25;;;24.28;41.10
5380;BME280;2713;42.680;23.310;2022-09-14T07:38:49;95064.66;;;24.26;41.69
5380;BME280;2713;42.680;23.310;2022-09-14T07:41:16;95063.09;;;24.60;40.12
5380;BME280;2713;42.680;23.310;2022-09-14T07:43:43;95066.53;;;24.45;40.78
5380;BME280;2713;42.680;23.310;2022-09-14T07:46:13;95067.34;;;24.61;39.71
5380;BME280;2713;42.680;23.310;2022-09-14T07:48:40;95061.25;;;24.55;40.42
5380;BME280;2713;42.680;23.310;2022-09-14T07:51:08;95064.69;;;24.61;39.70
5380;BME280;2713;42.680;23.310;2022-09-14T07:53:37;95063.66;;;24.92;39.51
5380;BME280;2713;42.680;23.310;2022-09-14T07:56:06;95063.38;;;24.79;39.54
5380;BME280;2713;42.680;23.310;2022-09-14T07:58:33;95061.75;;;25.03;39.83
5380;BME280;2713;42.680;23.310;2022-09-14T08:01:01;95060.84;;;25.43;39.14
5380;BME280;2713;42.680;23.310;2022-09-14T08:03:28;95071.75;;;25.56;38.55
5380;BME280;2713;42.680;23.310;2022-09-14T08:05:59;95077.28;;;25.75;38.15
5380;BME280;2713;42.680;23.310;2022-09-14T08:08:30;95057.97;;;25.98;37.98
5380;BME280;2713;42.680;23.310;2022-09-14T08:11:06;95059.78;;;26.08;37.26
5380;BME280;2713;42.680;23.310;2022-09-14T08:13:36;95054.50;;;25.93;37.42
5380;BME280;2713;42.680;23.310;2022-09-14T08:16:04;95064.97;;;26.33;37.55
5380;BME280;2713;42.680;23.310;2022-09-14T08:18:32;95052.25;;;26.20;36.87
5380;BME280;2713;42.680;23.310;2022-09-14T08:21:03;95054.41;;;25.64;37.85
5380;BME280;2713;42.680;23.310;2022-09-14T08:23:30;95042.41;;;26.15;37.64
5380;BME280;2713;42.680;23.310;2022-09-14T08:26:01;95055.22;;;25.64;37.77
5380;BME280;2713;42.680;23.310;2022-09-14T08:28:30;95047.06;;;25.90;37.90
5380;BME280;2713;42.680;23.310;2022-09-14T08:31:02;95057.16;;;25.98;37.81
5380;BME280;2713;42.680;23.310;2022-09-14T08:33:30;95062.47;;;26.47;36.76
5380;BME280;2713;42.680;23.310;2022-09-14T08:35:57;95051.91;;;26.37;36.97
5380;BME280;2713;42.680;23.310;2022-09-14T08:38:24;95041.75;;;26.39;37.24
5380;BME280;2713;42.680;23.310;2022-09-14T08:40:51;95048.44;;;26.65;36.06
5380;BME280;2713;42.680;23.310;2022-09-14T08:43:20;95050.94;;;26.56;36.37
5380;BME280;2713;42.680;23.310;2022-09-14T08:46:02;95040.84;;;27.11;36.16
5380;BME280;2713;42.680;23.310;2022-09-14T08:48:46;95042.84;;;27.24;35.53
5380;BME280;2713;42.680;23.310;2022-09-14T08:51:14;95043.88;;;27.28;34.96
5380;BME280;2713;42.680;23.310;2022-09-14T08:53:43;95038.53;;;27.04;35.30
5380;BME280;2713;42.680;23.310;2022-09-14T08:56:12;95031.53;;;26.80;35.90
5380;BME280;2713;42.680;23.310;2022-09-14T08:59:01;95035.19;;;26.89;36.29
5380;BME280;2713;42.680;23.310;2022-09-14T09:01:39;95033.31;;;27.18;35.85
5380;BME280;2713;42.680;23.310;2022-09-14T09:04:27;95032.03;;;26.87;36.18
5380;BME280;2713;42.680;23.310;2022-09-14T09:07:02;95028.66;;;27.05;35.72
5380;BME280;2713;42.680;23.310;2022-09-14T09:09:37;95029.56;;;27.43;35.46
5380;BME280;2713;42.680;23.310;2022-09-14T09:12:07;95025.25;;;26.65;36.79
5380;BME280;2713;42.680;23.310;2022-09-14T09:14:40;95027.19;;;26.89;36.13
5380;BME280;2713;42.680;23.310;2022-09-14T09:17:14;95019.06;;;26.99;36.33
5380;BME280;2713;42.680;23.310;2022-09-14T09:19:51;95026.72;;;27.10;35.83
5380;BME280;2713;42.680;23.310;2022-09-14T09:22:21;95014.31;;;26.96;35.55
5380;BME280;2713;42.680;23.310;2022-09-14T09:24:51;95012.88;;;27.56;34.93
5380;BME280;2713;42.680;23.310;2022-09-14T09:27:19;95022.50;;;27.94;34.43
5380;BME280;2713;42.680;23.310;2022-09-14T09:29:46;95012.25;;;27.83;34.72
5380;BME280;2713;42.680;23.310;2022-09-14T09:32:17;95014.88;;;27.40;35.31
5380;BME280;2713;42.680;23.310;2022-09-14T09:35:04;95005.56;;;27.38;35.47
5380;BME280;2713;42.680;23.310;2022-09-14T09:37:55;95016.78;;;27.82;34.56
5380;BME280;2713;42.680;23.310;2022-09-14T09:40:27;95015.66;;;28.07;34.31
5380;BME280;2713;42.680;23.310;2022-09-14T09:43:07;95011.38;;;27.68;34.77
5380;BME280;2713;42.680;23.310;2022-09-14T09:45:49;95010.19;;;27.75;34.85
5380;BME280;2713;42.680;23.310;2022-09-14T09:48:21;95003.13;;;27.46;34.77
5380;BME280;2713;42.680;23.310;2022-09-14T09:50:51;94997.56;;;27.61;34.55
5380;BME280;2713;42.680;23.310;2022-09-14T09:53:23;94993.97;;;28.08;34.22
5380;BME280;2713;42.680;23.310;2022-09-14T09:55:50;95000.19;;;28.23;34.20
5380;BME280;2713;42.680;23.310;2022-09-14T09:58:35;94992.09;;;28.09;34.64
5380;BME280;2713;42.680;23.310;2022-09-14T10:01:04;94986.38;;;28.34;34.52
5380;BME280;2713;42.680;23.310;2022-09-14T10:03:36;94986.38;;;28.34;34.61
5380;BME280;2713;42.680;23.310;2022-09-14T10:06:06;94982.75;;;28.11;34.07
5380;BME280;2713;42.680;23.310;2022-09-14T10:08:40;94980.13;;;28.06;34.74
5380;BME280;2713;42.680;23.310;2022-09-14T10:11:26;94963.94;;;28.16;34.47
5380;BME280;2713;42.680;23.310;2022-09-14T10:13:55;94960.69;;;28.01;34.35
5380;BME280;2713;42.680;23.310;2022-09-14T10:16:24;94950.72;;;28.25;34.16
5380;BME280;2713;42.680;23.310;2022-09-14T10:18:53;94963.94;;;27.98;34.77
5380;BME280;2713;42.680;23.310;2022-09-14T10:21:21;94958.66;;;27.93;35.07
5380;BME280;2713;42.680;23.310;2022-09-14T10:24:02;94955.34;;;27.82;34.89
5380;BME280;2713;42.680;23.310;2022-09-14T10:26:32;94957.00;;;27.97;35.22
5380;BME280;2713;42.680;23.310;2022-09-14T10:29:34;94955.41;;;28.14;34.62
5380;BME280;2713;42.680;23.310;2022-09-14T10:32:17;94955.53;;;28.55;33.75
5380;BME280;2713;42.680;23.310;2022-09-14T10:34:46;94944.53;;;28.57;33.56
5380;BME280;2713;42.680;23.310;2022-09-14T10:37:22;94936.81;;;28.55;33.91
5380;BME280;2713;42.680;23.310;2022-09-14T10:40:02;94938.06;;;28.44;34.49
5380;BME280;2713;42.680;23.310;2022-09-14T10:42:38;94939.84;;;28.35;33.95
5380;BME280;2713;42.680;23.310;2022-09-14T10:45:16;94940.09;;;28.66;34.27
5380;BME280;2713;42.680;23.310;2022-09-14T10:47:56;94945.59;;;28.75;33.57
5380;BME280;2713;42.680;23.310;2022-09-14T10:50:36;94937.31;;;28.57;33.25
5380;BME280;2713;42.680;23.310;2022-09-14T10:53:14;94930.31;;;28.43;33.75
5380;BME280;2713;42.680;23.310;2022-09-14T10:55:50;94930.13;;;28.39;33.43
5380;BME280;2713;42.680;23.310;2022-09-14T10:58:34;94928.09;;;28.63;32.57
5380;BME280;2713;42.680;23.310;2022-09-14T11:01:22;94923.19;;;28.98;32.50
5380;BME280;2713;42.680;23.310;2022-09-14T11:04:01;94925.56;;;29.13;31.87
5380;BME280;2713;42.680;23.310;2022-09-14T11:06:46;94927.00;;;28.51;32.82
5380;BME280;2713;42.680;23.310;2022-09-14T11:09:19;94915.31;;;28.60;31.77
5380;BME280;2713;42.680;23.310;2022-09-14T11:11:56;94918.53;;;28.90;30.49
5380;BME280;2713;42.680;23.310;2022-09-14T11:14:33;94919.53;;;28.66;28.62
5380;BME280;2713;42.680;23.310;2022-09-14T11:20:08;94920.06;;;28.63;28.65
5380;BME280;2713;42.680;23.310;2022-09-14T11:22:45;94921.66;;;28.64;28.34
5380;BME280;2713;42.680;23.310;2022-09-14T11:25:18;94924.59;;;28.36;28.48
5380;BME280;2713;42.680;23.310;2022-09-14T11:27:50;94913.94;;;28.17;28.50
5380;BME280;2713;42.680;23.310;2022-09-14T11:30:19;94906.94;;;28.21;28.80
5380;BME280;2713;42.680;23.310;2022-09-14T11:32:49;94899.22;;;28.33;28.60
5380;BME280;2713;42.680;23.310;2022-09-14T11:35:21;94900.72;;;28.39;28.92
5380;BME280;2713;42.680;23.310;2022-09-14T11:37:54;94892.53;;;28.49;28.64
5380;BME280;2713;42.680;23.310;2022-09-14T11:40:25;94889.84;;;28.49;27.86
5380;BME280;2713;42.680;23.310;2022-09-14T11:42:57;94879.59;;;28.24;28.66
5380;BME280;2713;42.680;23.310;2022-09-14T11:45:28;94885.84;;;28.33;28.82
5380;BME280;2713;42.680;23.310;2022-09-14T11:48:05;94882.00;;;28.39;29.37
5380;BME280;2713;42.680;23.310;2022-09-14T11:50:35;94881.44;;;28.42;29.08
5380;BME280;2713;42.680;23.310;2022-09-14T11:53:10;94879.63;;;28.51;29.24
5380;BME280;2713;42.680;23.310;2022-09-14T11:55:42;94888.53;;;28.47;28.57
5380;BME280;2713;42.680;23.310;2022-09-14T11:58:17;94879.84;;;28.55;28.44
5380;BME280;2713;42.680;23.310;2022-09-14T12:01:01;94878.28;;;28.67;28.56
5380;BME280;2713;42.680;23.310;2022-09-14T12:03:49;94880.44;;;28.65;28.83
5380;BME280;2713;42.680;23.310;2022-09-14T12:09:40;94876.81;;;28.29;28.84
5380;BME280;2713;42.680;23.310;2022-09-14T12:12:32;94875.72;;;28.16;29.62
5380;BME280;2713;42.680;23.310;2022-09-14T12:15:02;94874.00;;;28.07;28.91
5380;BME280;2713;42.680;23.310;2022-09-14T12:17:33;94872.34;;;27.92;29.45
5380;BME280;2713;42.680;23.310;2022-09-14T12:20:33;94882.06;;;28.02;29.63
5380;BME280;2713;42.680;23.310;2022-09-14T12:23:22;94876.94;;;28.05;29.54
5380;BME280;2713;42.680;23.310;2022-09-14T12:26:25;94877.47;;;28.07;29.55
5380;BME280;2713;42.680;23.310;2022-09-14T12:28:56;94871.16;;;27.98;29.08
5380;BME280;2713;42.680;23.310;2022-09-14T12:31:32;94872.06;;;27.94;29.71
5380;BME280;2713;42.680;23.310;2022-09-14T12:46:39;94857.69;;;27.90;31.05
5380;BME280;2713;42.680;23.310;2022-09-14T12:49:27;94853.59;;;27.79;31.16
5380;BME280;2713;42.680;23.310;2022-09-14T12:51:54;94857.66;;;27.76;31.37
5380;BME280;2713;42.680;23.310;2022-09-14T12:54:29;94860.00;;;27.78;31.15
5380;BME280;2713;42.680;23.310;2022-09-14T12:57:08;94865.22;;;27.88;31.57
5380;BME280;2713;42.680;23.310;2022-09-14T12:59:48;94864.44;;;27.87;31.66
5380;BME280;2713;42.680;23.310;2022-09-14T13:02:47;94868.75;;;27.83;31.74
5380;BME280;2713;42.680;23.310;2022-09-14T13:05:20;94862.13;;;27.81;32.11
5380;BME280;2713;42.680;23.310;2022-09-14T13:07:48;94858.56;;;27.85;32.26
5380;BME280;2713;42.680;23.310;2022-09-14T13:10:18;94866.84;;;28.02;32.23
5380;BME280;2713;42.680;23.310;2022-09-14T13:12:46;94868.44;;;28.03;32.34
5380;BME280;2713;42.680;23.310;2022-09-14T13:15:21;94874.25;;;28.05;32.26
5380;BME280;2713;42.680;23.310;2022-09-14T13:17:57;94873.78;;;27.85;32.83
5380;BME280;2713;42.680;23.310;2022-09-14T13:20:25;94861.53;;;27.84;33.16
5380;BME280;2713;42.680;23.310;2022-09-14T13:22:53;94869.97;;;27.91;32.58
5380;BME280;2713;42.680;23.310;2022-09-14T13:25:29;94857.53;;;28.00;31.88
5380;BME280;2713;42.680;23.310;2022-09-14T13:27:59;94862.81;;;28.05;32.95
5380;BME280;2713;42.680;23.310;2022-09-14T13:30:28;94860.19;;;28.18;32.39
5380;BME280;2713;42.680;23.310;2022-09-14T13:32:57;94862.34;;;28.16;32.44
5380;BME280;2713;42.680;23.310;2022-09-14T13:35:29;94863.22;;;28.12;32.92
5380;BME280;2713;42.680;23.310;2022-09-14T13:37:58;94857.88;;;28.12;33.04
5380;BME280;2713;42.680;23.310;2022-09-14T13:40:28;94863.75;;;28.14;33.07
5380;BME280;2713;42.680;23.310;2022-09-14T13:42:56;94863.63;;;28.19;33.08
5380;BME280;2713;42.680;23.310;2022-09-14T13:45:24;94864.34;;;28.25;33.21
5380;BME280;2713;42.680;23.310;2022-09-14T13:47:52;94860.38;;;28.22;33.20
5380;BME280;2713;42.680;23.310;2022-09-14T13:50:22;94871.16;;;28.17;33.04
5380;BME280;2713;42.680;23.310;2022-09-14T13:52:50;94862.13;;;28.13;33.10
5380;BME280;2713;42.680;23.310;2022-09-14T13:55:23;94868.78;;;28.15;33.31